createdAt,value
2022-08-26T00:01:30.526Z,13.48
2022-08-26T00:04:12.474Z,13.89
2022-08-26T00:14:24.207Z,13.57
2022-08-26T00:17:09.204Z,13.76
2022-08-26T00:19:44.784Z,13.31
2022-08-26T00:22:21.472Z,14.22
2022-08-26T00:24:56.026Z,14.00
2022-08-26T00:27:30.344Z,13.38
2022-08-26T00:30:14.778Z,13.82
2022-08-26T00:43:14.317Z,13.68
2022-08-26T00:46:03.344Z,13.36
2022-08-26T00:48:39.996Z,13.31
2022-08-26T00:51:29.657Z,13.63
2022-08-26T00:54:10.751Z,13.24
2022-08-26T01:07:53.326Z,13.36
2022-08-26T01:10:37.326Z,13.24
2022-08-26T01:13:14.526Z,13.43
2022-08-26T01:16:00.422Z,13.43
2022-08-26T01:18:35.946Z,13.65
2022-08-26T01:21:22.206Z,13.47
2022-08-26T01:23:59.949Z,13.94
2022-08-26T01:36:59.304Z,14.74
2022-08-26T01:39:43.383Z,14.18
2022-08-26T01:42:22.864Z,13.62
2022-08-26T01:45:13.325Z,13.62
2022-08-26T01:47:50.462Z,13.61
2022-08-26T02:01:30.329Z,14.02
2022-08-26T02:04:23.386Z,14.93
2022-08-26T02:07:10.115Z,14.97
2022-08-26T02:09:53.375Z,15.37
2022-08-26T02:12:27.875Z,15.23
2022-08-26T02:15:08.350Z,15.70
2022-08-26T02:28:26.608Z,15.10
2022-08-26T02:31:01.775Z,15.12
2022-08-26T02:33:37.349Z,15.06
2022-08-26T02:36:20.796Z,15.13
2022-08-26T02:39:01.452Z,15.10
2022-08-26T02:41:35.921Z,14.87
2022-08-26T02:44:27.358Z,15.38
2022-08-26T02:54:51.317Z,16.30
2022-08-26T02:57:31.377Z,16.24
2022-08-26T03:00:12.061Z,16.46
2022-08-26T03:02:52.337Z,15.88
2022-08-26T03:05:26.157Z,16.08
2022-08-26T03:21:42.317Z,15.11
2022-08-26T03:24:24.218Z,14.93
2022-08-26T03:26:59.138Z,15.53
2022-08-26T03:29:49.548Z,15.23
2022-08-26T03:32:30.940Z,15.58
2022-08-26T03:35:13.339Z,15.33
2022-08-26T03:48:26.337Z,15.24
2022-08-26T03:51:00.637Z,15.16
2022-08-26T03:53:43.357Z,14.96
2022-08-26T03:56:17.860Z,15.30
2022-08-26T03:58:52.369Z,14.97
2022-08-26T04:01:25.998Z,15.25
2022-08-26T04:04:08.357Z,15.57
2022-08-26T04:17:18.358Z,15.45
2022-08-26T04:19:54.151Z,14.98
2022-08-26T04:22:28.376Z,14.39
2022-08-26T04:25:03.716Z,14.45
2022-08-26T04:27:48.440Z,14.15
2022-08-26T04:30:22.937Z,13.52
2022-08-26T04:43:47.318Z,13.44
2022-08-26T04:46:30.412Z,13.55
2022-08-26T04:49:04.445Z,13.33
2022-08-26T04:51:38.377Z,13.35
2022-08-26T04:54:12.598Z,13.78
2022-08-26T05:10:28.358Z,13.52
2022-08-26T05:13:01.991Z,13.11
2022-08-26T05:15:36.402Z,13.39
2022-08-26T05:18:10.525Z,13.38
2022-08-26T05:20:47.379Z,12.65
2022-08-26T05:23:21.078Z,13.28
2022-08-26T05:36:17.337Z,12.07
2022-08-26T05:39:00.346Z,12.18
2022-08-26T05:41:38.837Z,12.60
2022-08-26T05:44:22.487Z,12.63
2022-08-26T05:46:55.898Z,12.10
2022-08-26T05:49:29.385Z,12.50
2022-08-26T06:02:42.499Z,12.66
2022-08-26T06:05:16.979Z,13.21
2022-08-26T06:07:51.380Z,12.93
2022-08-26T06:10:33.345Z,12.82
2022-08-26T06:13:13.507Z,13.19
2022-08-26T06:29:51.338Z,13.25
2022-08-26T06:32:31.377Z,13.52
2022-08-26T06:35:12.003Z,13.29
2022-08-26T06:37:53.243Z,13.20
2022-08-26T06:40:26.901Z,13.30
2022-08-26T06:43:01.958Z,13.17
2022-08-26T06:56:17.362Z,13.55
2022-08-26T06:58:52.096Z,13.41
2022-08-26T07:01:28.483Z,13.31
2022-08-26T07:04:10.621Z,13.69
2022-08-26T07:06:53.382Z,13.63
2022-08-26T07:09:30.017Z,13.21
2022-08-26T07:22:25.339Z,14.33
2022-08-26T07:25:05.425Z,14.23
2022-08-26T07:27:39.944Z,14.38
2022-08-26T07:30:16.378Z,14.01
2022-08-26T07:32:49.901Z,14.42
2022-08-26T07:35:23.398Z,13.91
2022-08-26T07:49:10.350Z,15.43
2022-08-26T07:51:44.997Z,15.51
2022-08-26T07:54:18.756Z,15.83
2022-08-26T07:56:53.641Z,15.42
2022-08-26T07:59:36.397Z,15.55
2022-08-26T08:02:09.897Z,15.96
2022-08-26T08:04:47.452Z,15.83
2022-08-26T08:18:00.689Z,15.40
2022-08-26T08:20:36.837Z,14.51
2022-08-26T08:23:11.378Z,14.56
2022-08-26T08:25:45.946Z,14.37
2022-08-26T08:28:19.377Z,14.58
2022-08-26T08:45:03.337Z,14.56
2022-08-26T08:47:49.245Z,14.58
2022-08-26T08:50:40.638Z,13.89
2022-08-26T08:53:26.584Z,13.58
2022-08-26T08:56:12.137Z,13.47
2022-08-26T08:59:00.378Z,13.17
2022-08-26T09:09:27.382Z,13.32
2022-08-26T09:12:09.337Z,12.69
2022-08-26T09:14:44.158Z,13.08
2022-08-26T09:17:38.377Z,12.82
2022-08-26T09:20:25.056Z,12.94
2022-08-26T09:23:05.429Z,13.16
2022-08-26T09:36:27.377Z,13.05
2022-08-26T09:39:00.937Z,13.68
2022-08-26T09:41:38.459Z,14.11
2022-08-26T09:44:18.036Z,14.12
2022-08-26T09:47:13.378Z,13.80
2022-08-26T09:50:00.120Z,14.56
2022-08-26T10:02:58.138Z,13.42
2022-08-26T10:05:48.377Z,13.35
2022-08-26T10:08:27.207Z,13.61
2022-08-26T10:11:20.799Z,13.12
2022-08-26T10:14:04.256Z,12.89
2022-08-26T10:16:54.468Z,13.40
2022-08-26T10:19:41.544Z,12.96
2022-08-26T10:29:49.378Z,12.57
2022-08-26T10:32:34.078Z,12.55
2022-08-26T10:35:19.391Z,12.07
2022-08-26T10:38:01.618Z,11.49
2022-08-26T10:40:59.419Z,11.28
2022-08-26T10:43:41.198Z,10.96
2022-08-26T10:56:50.337Z,10.72
2022-08-26T10:59:52.377Z,10.36
2022-08-26T11:02:39.137Z,10.66
2022-08-26T11:05:28.097Z,10.82
2022-08-26T11:08:29.097Z,11.14
2022-08-26T11:25:09.406Z,11.46
2022-08-26T11:28:04.231Z,10.70
2022-08-26T11:30:58.287Z,11.17
2022-08-26T11:33:56.839Z,10.82
2022-08-26T11:37:04.538Z,10.46
2022-08-26T11:39:55.428Z,10.44
2022-08-26T11:52:24.958Z,10.71
2022-08-26T11:55:10.459Z,10.45
2022-08-26T11:57:48.533Z,10.12
2022-08-26T12:00:33.743Z,9.63
2022-08-26T12:03:08.988Z,9.24
2022-08-26T12:16:35.381Z,8.83
2022-08-26T12:19:32.830Z,9.54
2022-08-26T12:22:16.917Z,9.03
2022-08-26T12:25:01.417Z,9.20
2022-08-26T12:27:40.139Z,9.96
2022-08-26T12:30:26.448Z,9.44
2022-08-26T12:43:53.418Z,8.29
2022-08-26T12:46:29.617Z,8.50
2022-08-26T12:49:10.377Z,9.11
2022-08-26T12:51:50.079Z,8.96
2022-08-26T12:54:30.377Z,8.13
2022-08-26T12:57:10.199Z,8.08
2022-08-26T12:59:52.798Z,8.38
2022-08-26T13:10:09.384Z,8.39
2022-08-26T13:12:49.405Z,8.14
2022-08-26T13:15:25.305Z,8.40
2022-08-26T13:17:59.417Z,8.37
2022-08-26T13:20:33.217Z,8.47
2022-08-26T13:23:07.398Z,8.32
2022-08-26T13:25:41.057Z,8.27
2022-08-26T13:38:33.476Z,8.99
2022-08-26T13:41:14.378Z,8.34
2022-08-26T13:43:49.938Z,8.56
2022-08-26T13:46:23.468Z,8.12
2022-08-26T13:49:01.423Z,8.20
2022-08-26T14:05:16.540Z,8.42
2022-08-26T14:07:49.858Z,8.51
2022-08-26T14:10:25.057Z,8.46
2022-08-26T14:13:06.202Z,9.01
2022-08-26T14:15:49.452Z,9.04
2022-08-26T14:18:31.680Z,8.70
2022-08-26T14:31:33.445Z,8.64
2022-08-26T14:34:14.398Z,8.90
2022-08-26T14:36:47.938Z,9.23
2022-08-26T14:39:21.377Z,8.89
2022-08-26T14:41:56.857Z,8.69
2022-08-26T14:44:36.397Z,9.21
2022-08-26T14:57:48.398Z,9.27
2022-08-26T15:00:21.878Z,9.51
2022-08-26T15:02:55.495Z,9.19
2022-08-26T15:05:30.177Z,9.46
2022-08-26T15:08:04.518Z,9.23
2022-08-26T15:10:38.060Z,9.21
2022-08-26T15:24:11.358Z,9.02
2022-08-26T15:26:55.390Z,8.63
2022-08-26T15:29:28.977Z,8.73
2022-08-26T15:32:02.538Z,8.86
2022-08-26T15:34:36.079Z,9.10
2022-08-26T15:37:10.417Z,9.08
2022-08-26T15:39:44.277Z,8.95
2022-08-26T15:52:34.333Z,8.95
2022-08-26T15:55:16.407Z,8.94
2022-08-26T15:57:50.058Z,8.82
2022-08-26T16:00:24.418Z,8.42
2022-08-26T16:02:57.897Z,8.56
2022-08-26T16:05:31.472Z,8.72
2022-08-26T16:18:45.098Z,8.94
2022-08-26T16:21:23.637Z,8.87
2022-08-26T16:24:06.401Z,8.32
2022-08-26T16:26:42.258Z,7.80
2022-08-26T16:29:19.438Z,7.06
2022-08-26T16:46:04.444Z,5.41
2022-08-26T16:48:44.397Z,4.98
2022-08-26T16:51:21.941Z,5.05
2022-08-26T16:54:07.038Z,5.33
2022-08-26T16:56:40.897Z,5.01
2022-08-26T16:59:16.398Z,5.31
2022-08-26T17:12:28.417Z,5.02
2022-08-26T17:15:02.406Z,5.07
2022-08-26T17:17:36.537Z,4.81
2022-08-26T17:20:15.037Z,5.10
2022-08-26T17:23:00.099Z,4.88
2022-08-26T17:25:33.977Z,4.67
2022-08-26T17:38:24.381Z,4.32
2022-08-26T17:41:05.401Z,4.25
2022-08-26T17:43:40.317Z,4.51
2022-08-26T17:46:16.526Z,4.51
2022-08-26T17:48:49.997Z,4.39
2022-08-26T18:05:05.426Z,5.05
2022-08-26T18:07:43.902Z,5.14
2022-08-26T18:10:27.424Z,5.12
2022-08-26T18:13:01.038Z,5.15
2022-08-26T18:15:39.493Z,5.30
2022-08-26T18:18:14.117Z,5.40
2022-08-26T18:20:54.095Z,5.61
2022-08-26T18:31:14.480Z,5.82
2022-08-26T18:33:54.379Z,5.82
2022-08-26T18:36:33.237Z,4.63
2022-08-26T18:39:16.418Z,4.04
2022-08-26T18:41:51.897Z,2.85
2022-08-26T18:44:27.423Z,2.58
2022-08-26T18:57:59.478Z,2.13
2022-08-26T19:00:32.921Z,2.01
2022-08-26T19:03:06.500Z,2.05
2022-08-26T19:05:52.678Z,2.25
2022-08-26T19:08:26.478Z,2.24
2022-08-26T19:11:00.482Z,2.10
2022-08-26T19:13:36.610Z,2.15
2022-08-26T19:26:49.299Z,2.48
2022-08-26T19:29:29.881Z,2.40
2022-08-26T19:32:12.382Z,2.22
2022-08-26T19:34:46.158Z,2.29
2022-08-26T19:37:19.437Z,2.21
2022-08-26T19:39:53.306Z,2.35
2022-08-26T19:52:43.337Z,2.19
2022-08-26T19:55:26.460Z,2.24
2022-08-26T19:57:59.938Z,1.97
2022-08-26T20:00:36.458Z,2.10
2022-08-26T20:03:10.732Z,2.18
2022-08-26T20:05:56.723Z,2.08
2022-08-26T20:19:16.438Z,2.42
2022-08-26T20:21:49.998Z,2.29
2022-08-26T20:24:25.398Z,2.26
2022-08-26T20:26:58.938Z,2.27
2022-08-26T20:29:34.261Z,2.45
2022-08-26T20:32:08.390Z,2.50
2022-08-26T20:34:45.358Z,2.51
2022-08-26T20:45:00.358Z,2.73
2022-08-26T20:47:40.438Z,2.96
2022-08-26T20:50:15.897Z,2.64
2022-08-26T20:52:49.401Z,2.76
2022-08-26T20:55:22.898Z,2.66
2022-08-26T20:57:56.397Z,2.83
2022-08-26T21:00:31.958Z,2.84
2022-08-26T21:13:22.378Z,2.39
2022-08-26T21:16:03.552Z,2.39
2022-08-26T21:18:38.363Z,2.44
2022-08-26T21:21:14.397Z,2.38
2022-08-26T21:23:53.097Z,2.17
2022-08-26T21:40:17.943Z,2.66
2022-08-26T21:42:51.937Z,2.84
2022-08-26T21:45:26.465Z,2.79
2022-08-26T21:47:59.958Z,2.72
2022-08-26T21:50:33.417Z,2.40
2022-08-26T21:53:11.757Z,2.29
2022-08-26T21:55:47.417Z,2.35
2022-08-26T22:05:32.376Z,3.27
2022-08-26T22:08:12.417Z,3.49
2022-08-26T22:10:48.558Z,3.25
2022-08-26T22:13:22.418Z,3.30
2022-08-26T22:15:58.279Z,2.87
2022-08-26T22:18:34.467Z,3.24
2022-08-26T22:32:01.509Z,2.88
2022-08-26T22:34:34.917Z,2.85
2022-08-26T22:37:08.578Z,2.61
2022-08-26T22:39:41.965Z,2.50
2022-08-26T22:42:16.425Z,2.50
2022-08-26T22:44:49.958Z,2.51
2022-08-26T23:01:05.430Z,2.92
2022-08-26T23:03:39.162Z,2.86
2022-08-26T23:06:15.465Z,3.14
2022-08-26T23:08:49.017Z,3.04
2022-08-26T23:13:54.737Z,2.75
2022-08-26T23:26:47.357Z,3.10
2022-08-26T23:29:30.457Z,3.09
2022-08-26T23:32:04.626Z,3.22
2022-08-26T23:34:38.437Z,3.06
2022-08-26T23:37:13.337Z,3.27
2022-08-26T23:39:48.280Z,3.01
2022-08-26T23:53:00.416Z,3.32
2022-08-26T23:55:35.517Z,3.32
2022-08-26T23:58:09.496Z,3.19
